createdAt,value
2018-07-31T00:02:00.083Z,3.73
2018-07-31T00:04:28.166Z,3.43
2018-07-31T00:06:56.267Z,3.67
2018-07-31T00:09:24.362Z,3.47
2018-07-31T00:11:52.450Z,3.40
2018-07-31T00:14:20.533Z,4.20
2018-07-31T00:16:48.671Z,3.53
2018-07-31T00:19:16.754Z,3.37
2018-07-31T00:21:44.899Z,3.30
2018-07-31T00:24:12.963Z,3.53
2018-07-31T00:26:41.115Z,3.27
2018-07-31T00:29:09.191Z,3.40
2018-07-31T00:31:37.272Z,3.27
2018-07-31T00:34:05.431Z,4.03
2018-07-31T00:36:33.542Z,3.73
2018-07-31T00:39:01.621Z,3.50
2018-07-31T00:41:29.763Z,3.40
2018-07-31T00:43:57.856Z,2.80
2018-07-31T00:46:25.983Z,3.03
2018-07-31T00:48:54.120Z,3.53
2018-07-31T00:51:22.231Z,3.30
2018-07-31T00:53:50.387Z,3.63
2018-07-31T00:56:18.478Z,3.73
2018-07-31T00:58:46.628Z,3.17
2018-07-31T01:01:14.740Z,3.83
2018-07-31T01:03:42.898Z,3.67
2018-07-31T01:06:10.812Z,4.27
2018-07-31T01:08:38.969Z,3.27
2018-07-31T01:11:07.041Z,3.93
2018-07-31T01:13:35.196Z,3.17
2018-07-31T01:16:03.359Z,3.63
2018-07-31T01:18:31.483Z,3.30
2018-07-31T01:20:59.604Z,3.50
2018-07-31T01:23:27.720Z,3.67
2018-07-31T01:25:55.863Z,3.90
2018-07-31T01:28:23.960Z,3.67
2018-07-31T01:30:52.066Z,3.50
2018-07-31T01:33:20.171Z,3.17
2018-07-31T01:35:48.279Z,3.23
2018-07-31T01:38:16.370Z,3.10
2018-07-31T01:40:44.455Z,3.73
2018-07-31T01:43:12.587Z,3.53
2018-07-31T01:45:40.752Z,3.47
2018-07-31T01:48:08.830Z,3.40
2018-07-31T01:50:36.946Z,3.70
2018-07-31T01:53:05.063Z,3.50
2018-07-31T01:55:33.178Z,3.63
2018-07-31T01:58:01.267Z,4.10
2018-07-31T02:00:29.372Z,3.53
2018-07-31T02:02:57.348Z,4.47
2018-07-31T02:05:25.468Z,4.70
2018-07-31T02:07:53.602Z,3.43
2018-07-31T02:10:21.868Z,3.77
2018-07-31T02:12:49.943Z,4.00
2018-07-31T02:15:18.035Z,3.77
2018-07-31T02:17:46.159Z,4.03
2018-07-31T02:20:14.319Z,4.17
2018-07-31T02:22:42.395Z,3.20
2018-07-31T02:25:10.528Z,3.83
2018-07-31T02:27:38.670Z,4.13
2018-07-31T02:30:08.952Z,4.30
2018-07-31T02:32:38.160Z,4.43
2018-07-31T02:35:06.265Z,4.20
2018-07-31T02:37:34.372Z,4.80
2018-07-31T02:40:02.509Z,4.17
2018-07-31T02:42:30.600Z,4.83
2018-07-31T02:44:58.727Z,3.93
2018-07-31T02:47:26.800Z,4.57
2018-07-31T02:49:54.922Z,4.57
2018-07-31T02:52:23.094Z,4.53
2018-07-31T02:54:51.211Z,4.47
2018-07-31T02:57:19.279Z,4.27
2018-07-31T02:59:47.399Z,4.20
2018-07-31T03:02:15.275Z,4.60
2018-07-31T03:04:43.395Z,4.60
2018-07-31T03:07:11.491Z,4.70
2018-07-31T03:09:39.602Z,4.20
2018-07-31T03:12:07.712Z,5.03
2018-07-31T03:14:35.787Z,4.47
2018-07-31T03:17:03.899Z,4.37
2018-07-31T03:19:32.056Z,4.80
2018-07-31T03:22:00.136Z,4.60
2018-07-31T03:24:28.263Z,5.37
2018-07-31T03:26:56.360Z,4.47
2018-07-31T03:29:25.354Z,4.73
2018-07-31T03:31:54.355Z,4.67
2018-07-31T03:34:22.479Z,4.97
2018-07-31T03:36:50.623Z,5.07
2018-07-31T03:39:18.755Z,4.93
2018-07-31T03:41:46.864Z,4.43
2018-07-31T03:44:14.967Z,5.13
2018-07-31T03:46:43.099Z,5.33
2018-07-31T03:49:11.199Z,4.57
2018-07-31T03:51:39.266Z,4.70
2018-07-31T03:54:07.373Z,4.67
2018-07-31T03:56:35.455Z,5.17
2018-07-31T03:59:03.892Z,4.93
2018-07-31T04:01:32.011Z,4.30
2018-07-31T04:04:00.090Z,5.03
2018-07-31T04:06:28.232Z,4.43
2018-07-31T04:08:56.332Z,4.87
2018-07-31T04:11:24.474Z,4.53
2018-07-31T04:13:52.696Z,5.03
2018-07-31T04:16:20.819Z,4.90
2018-07-31T04:18:48.943Z,5.43
2018-07-31T04:21:17.151Z,5.10
2018-07-31T04:23:45.295Z,5.97
2018-07-31T04:26:13.418Z,5.47
2018-07-31T04:28:41.504Z,5.13
2018-07-31T04:31:09.623Z,5.47
2018-07-31T04:33:37.771Z,4.47
2018-07-31T04:36:05.856Z,5.30
2018-07-31T04:38:33.790Z,5.23
2018-07-31T04:41:01.881Z,5.57
2018-07-31T04:43:29.975Z,5.70
2018-07-31T04:45:58.071Z,5.30
2018-07-31T04:48:26.178Z,6.10
2018-07-31T04:50:54.359Z,5.93
2018-07-31T04:53:22.455Z,6.17
2018-07-31T04:55:50.607Z,6.00
2018-07-31T04:58:18.725Z,6.27
2018-07-31T05:00:46.944Z,6.47
2018-07-31T05:03:15.044Z,5.77
2018-07-31T05:05:43.272Z,6.60
2018-07-31T05:08:11.226Z,5.80
2018-07-31T05:10:39.402Z,5.73
2018-07-31T05:13:07.571Z,5.00
2018-07-31T05:15:35.788Z,5.00
2018-07-31T05:18:03.880Z,6.17
2018-07-31T05:20:31.996Z,5.87
2018-07-31T05:23:00.144Z,5.23
2018-07-31T05:25:28.267Z,5.50
2018-07-31T05:27:56.390Z,5.30
2018-07-31T05:30:24.487Z,6.70
2018-07-31T05:32:52.693Z,5.70
2018-07-31T05:35:20.801Z,5.43
2018-07-31T05:37:48.940Z,5.67
2018-07-31T05:40:17.036Z,5.73
2018-07-31T05:42:46.190Z,5.13
2018-07-31T05:45:14.362Z,6.07
2018-07-31T05:47:42.529Z,5.23
2018-07-31T05:50:10.771Z,5.87
2018-07-31T05:52:39.301Z,6.23
2018-07-31T05:55:07.427Z,5.30
2018-07-31T05:57:36.553Z,6.10
2018-07-31T06:00:06.883Z,6.23
2018-07-31T06:02:35.020Z,6.27
2018-07-31T06:05:03.131Z,6.60
2018-07-31T06:07:31.247Z,6.30
2018-07-31T06:09:59.407Z,6.40
2018-07-31T06:12:27.535Z,9.20
2018-07-31T06:14:55.676Z,7.47
2018-07-31T06:17:24.165Z,6.03
2018-07-31T06:19:52.607Z,5.20
2018-07-31T06:22:20.760Z,5.93
2018-07-31T06:24:48.948Z,6.27
2018-07-31T06:27:17.250Z,6.33
2018-07-31T06:29:45.440Z,5.63
2018-07-31T06:32:13.583Z,5.93
2018-07-31T06:34:41.715Z,7.87
2018-07-31T06:37:09.831Z,8.17
2018-07-31T06:39:37.948Z,6.27
2018-07-31T06:42:06.077Z,6.50
2018-07-31T06:44:34.415Z,6.33
2018-07-31T06:47:02.509Z,4.67
2018-07-31T06:49:30.588Z,6.27
2018-07-31T06:51:58.700Z,5.47
2018-07-31T06:54:26.814Z,6.27
2018-07-31T06:56:54.923Z,5.67
2018-07-31T06:59:23.020Z,4.80
2018-07-31T07:01:51.419Z,6.50
2018-07-31T07:04:19.699Z,5.57
2018-07-31T07:06:48.012Z,6.37
2018-07-31T07:09:16.827Z,7.07
2018-07-31T07:11:44.935Z,6.33
2018-07-31T07:14:13.042Z,5.33
2018-07-31T07:16:41.211Z,5.93
2018-07-31T07:19:09.075Z,4.60
2018-07-31T07:21:37.194Z,5.47
2018-07-31T07:24:05.190Z,6.47
2018-07-31T07:26:33.303Z,7.37
2018-07-31T07:29:01.459Z,5.67
2018-07-31T07:31:29.588Z,5.87
2018-07-31T07:33:57.812Z,6.33
2018-07-31T07:36:25.868Z,6.00
2018-07-31T07:38:54.247Z,5.63
2018-07-31T07:41:22.336Z,5.60
2018-07-31T07:43:50.563Z,6.20
2018-07-31T07:46:18.772Z,5.37
2018-07-31T07:48:46.875Z,6.10
2018-07-31T07:51:15.017Z,6.07
2018-07-31T07:53:43.619Z,5.40
2018-07-31T07:56:11.850Z,4.90
2018-07-31T07:58:40.343Z,5.50
2018-07-31T08:01:08.510Z,5.27
2018-07-31T08:03:36.603Z,5.70
2018-07-31T08:06:04.749Z,4.20
2018-07-31T08:08:32.875Z,4.72
2018-07-31T08:11:01.027Z,5.17
2018-07-31T08:13:29.194Z,5.08
2018-07-31T08:15:57.315Z,4.83
2018-07-31T08:18:25.461Z,4.25
2018-07-31T08:20:53.703Z,5.60
2018-07-31T08:23:21.835Z,4.58
2018-07-31T08:25:49.871Z,5.55
2018-07-31T08:28:18.030Z,5.00
2018-07-31T08:30:46.163Z,3.97
2018-07-31T08:33:14.280Z,4.93
2018-07-31T08:35:42.400Z,4.60
2018-07-31T08:38:10.540Z,5.20
2018-07-31T08:40:38.646Z,6.50
2018-07-31T08:43:06.835Z,5.50
2018-07-31T08:45:34.945Z,5.07
2018-07-31T08:48:03.034Z,4.43
2018-07-31T08:50:31.228Z,4.80
2018-07-31T08:52:59.327Z,4.53
2018-07-31T08:55:27.443Z,4.20
2018-07-31T08:57:55.662Z,4.53
2018-07-31T09:00:23.811Z,4.10
2018-07-31T09:02:51.998Z,4.60
2018-07-31T09:05:20.094Z,4.17
2018-07-31T09:07:48.263Z,4.07
2018-07-31T09:10:16.355Z,3.53
2018-07-31T09:12:44.469Z,3.43
2018-07-31T09:15:12.563Z,3.57
2018-07-31T09:17:40.703Z,3.77
2018-07-31T09:20:08.807Z,3.63
2018-07-31T09:22:36.889Z,3.13
2018-07-31T09:25:05.181Z,4.20
2018-07-31T09:27:33.295Z,3.20
2018-07-31T09:30:01.412Z,4.37
2018-07-31T09:32:34.875Z,3.63
2018-07-31T09:35:02.972Z,3.70
2018-07-31T09:37:31.084Z,3.57
2018-07-31T09:39:59.202Z,4.07
2018-07-31T09:42:27.432Z,3.10
2018-07-31T09:44:55.519Z,4.13
2018-07-31T09:47:23.637Z,4.00
2018-07-31T09:49:51.739Z,3.67
2018-07-31T09:52:20.295Z,3.27
2018-07-31T09:54:48.388Z,3.33
2018-07-31T09:57:16.519Z,3.20
2018-07-31T09:59:44.608Z,3.42
2018-07-31T10:02:12.744Z,3.20
2018-07-31T10:04:41.052Z,4.47
2018-07-31T10:07:09.147Z,3.95
2018-07-31T10:09:37.245Z,3.25
2018-07-31T10:12:05.371Z,3.35
2018-07-31T10:14:33.427Z,3.30
2018-07-31T10:17:01.495Z,3.50
2018-07-31T10:19:29.604Z,2.90
2018-07-31T10:21:57.689Z,2.90
2018-07-31T10:24:25.868Z,3.10
2018-07-31T10:26:53.914Z,3.12
2018-07-31T10:29:22.036Z,3.47
2018-07-31T10:31:50.123Z,3.85
2018-07-31T10:34:18.227Z,3.40
2018-07-31T10:36:46.339Z,3.72
2018-07-31T10:39:14.467Z,2.98
2018-07-31T10:41:42.636Z,2.95
2018-07-31T10:44:10.756Z,3.20
2018-07-31T10:46:38.860Z,3.12
2018-07-31T10:49:06.984Z,3.58
2018-07-31T10:51:35.083Z,2.80
2018-07-31T10:54:03.229Z,2.83
2018-07-31T10:56:31.311Z,2.77
2018-07-31T10:58:59.436Z,2.75
2018-07-31T11:01:27.537Z,2.58
2018-07-31T11:03:55.666Z,2.75
2018-07-31T11:06:23.761Z,2.55
2018-07-31T11:08:51.962Z,2.50
2018-07-31T11:11:20.267Z,2.87
2018-07-31T11:13:48.407Z,2.62
2018-07-31T11:16:16.516Z,2.95
2018-07-31T11:18:44.615Z,2.30
2018-07-31T11:21:13.246Z,2.42
2018-07-31T11:23:42.329Z,2.70
2018-07-31T11:26:10.526Z,2.90
2018-07-31T11:28:38.739Z,2.80
2018-07-31T11:31:07.211Z,3.00
2018-07-31T11:33:35.319Z,2.50
2018-07-31T11:36:03.427Z,2.10
2018-07-31T11:38:32.178Z,2.90
2018-07-31T11:41:00.099Z,2.22
2018-07-31T11:43:28.191Z,2.95
2018-07-31T11:45:56.307Z,2.33
2018-07-31T11:48:24.567Z,1.90
2018-07-31T11:50:52.684Z,1.70
2018-07-31T11:53:20.763Z,3.00
2018-07-31T11:55:48.859Z,2.12
2018-07-31T11:58:16.935Z,2.27
2018-07-31T12:00:45.063Z,2.77
2018-07-31T12:03:13.164Z,2.30
2018-07-31T12:05:41.273Z,2.30
2018-07-31T12:08:09.376Z,2.37
2018-07-31T12:10:37.499Z,2.30
2018-07-31T12:13:05.608Z,2.47
2018-07-31T12:15:33.687Z,1.72
2018-07-31T12:18:01.797Z,2.00
2018-07-31T12:31:57.865Z,2.27
2018-07-31T12:34:25.963Z,1.80
2018-07-31T12:36:54.054Z,1.83
2018-07-31T12:39:22.194Z,1.60
2018-07-31T12:41:50.288Z,1.63
2018-07-31T12:44:18.475Z,2.00
2018-07-31T12:46:46.596Z,1.83
2018-07-31T12:49:14.686Z,1.80
2018-07-31T12:51:42.803Z,2.27
2018-07-31T12:54:11.102Z,1.40
2018-07-31T12:56:39.199Z,1.83
2018-07-31T12:59:07.295Z,1.77
2018-07-31T13:01:35.435Z,1.77
2018-07-31T13:04:03.539Z,2.57
2018-07-31T13:06:31.690Z,2.20
2018-07-31T13:08:59.825Z,2.03
2018-07-31T13:11:27.911Z,1.83
2018-07-31T13:13:56.032Z,1.43
2018-07-31T13:16:24.154Z,1.77
2018-07-31T13:18:52.254Z,1.77
2018-07-31T13:21:20.411Z,1.70
2018-07-31T13:23:48.517Z,2.07
2018-07-31T13:26:16.641Z,2.47
2018-07-31T13:28:44.787Z,1.55
2018-07-31T13:31:12.879Z,1.43
2018-07-31T13:33:40.972Z,1.80
2018-07-31T13:36:09.116Z,2.20
2018-07-31T13:38:37.252Z,1.73
2018-07-31T13:41:05.358Z,1.13
2018-07-31T13:43:33.567Z,1.80
2018-07-31T13:46:01.591Z,1.27
2018-07-31T13:48:29.696Z,1.53
2018-07-31T13:50:57.843Z,1.22
2018-07-31T13:53:25.947Z,1.40
2018-07-31T13:55:54.039Z,1.50
2018-07-31T13:58:22.167Z,1.70
2018-07-31T14:00:50.272Z,1.70
2018-07-31T14:03:18.396Z,1.80
2018-07-31T14:05:46.520Z,1.60
2018-07-31T14:08:14.614Z,1.77
2018-07-31T14:10:42.756Z,1.50
2018-07-31T14:13:10.871Z,1.37
2018-07-31T14:15:38.983Z,1.63
2018-07-31T14:18:07.112Z,1.37
2018-07-31T14:20:35.216Z,1.50
2018-07-31T14:23:03.304Z,1.20
2018-07-31T14:25:31.456Z,1.23
2018-07-31T14:27:59.551Z,2.30
2018-07-31T14:30:27.749Z,1.30
2018-07-31T14:32:55.787Z,1.70
2018-07-31T14:35:23.934Z,1.60
2018-07-31T14:37:52.147Z,1.43
2018-07-31T14:40:20.272Z,1.50
2018-07-31T14:42:48.382Z,1.67
2018-07-31T14:45:16.464Z,1.80
2018-07-31T14:47:44.575Z,1.70
2018-07-31T14:50:12.666Z,1.33
2018-07-31T14:52:40.792Z,1.93
2018-07-31T14:55:09.315Z,1.40
2018-07-31T14:57:37.183Z,1.67
2018-07-31T15:00:05.768Z,1.53
2018-07-31T15:02:33.935Z,1.63
2018-07-31T15:05:02.062Z,1.40
2018-07-31T15:07:30.166Z,1.40
2018-07-31T15:09:58.491Z,1.37
2018-07-31T15:12:26.643Z,1.97
2018-07-31T15:14:54.747Z,1.83
2018-07-31T15:17:22.928Z,1.90
2018-07-31T15:19:51.069Z,2.07
2018-07-31T15:22:19.242Z,1.70
2018-07-31T15:24:47.391Z,1.70
2018-07-31T15:27:15.683Z,1.93
2018-07-31T15:29:43.879Z,1.73
2018-07-31T15:32:11.892Z,2.10
2018-07-31T15:34:40.007Z,1.50
2018-07-31T15:37:08.106Z,2.00
2018-07-31T15:39:36.195Z,2.07
2018-07-31T15:44:38.859Z,1.93
2018-07-31T15:47:06.979Z,2.03
2018-07-31T15:49:35.069Z,2.10
2018-07-31T15:52:03.198Z,2.17
2018-07-31T15:54:31.324Z,2.00
2018-07-31T15:56:59.419Z,2.23
2018-07-31T15:59:27.529Z,1.73
2018-07-31T16:01:55.644Z,1.73
2018-07-31T16:04:23.756Z,2.03
2018-07-31T16:06:51.890Z,2.13
2018-07-31T16:09:19.970Z,1.93
2018-07-31T16:11:48.132Z,2.00
2018-07-31T16:14:16.223Z,1.83
2018-07-31T16:16:44.357Z,3.87
2018-07-31T16:19:12.467Z,1.60
2018-07-31T16:21:40.592Z,1.87
2018-07-31T16:24:08.715Z,1.83
2018-07-31T16:26:36.840Z,1.63
2018-07-31T16:29:05.120Z,2.53
2018-07-31T16:31:33.233Z,1.87
2018-07-31T16:34:01.417Z,1.83
2018-07-31T16:36:29.511Z,1.60
2018-07-31T16:38:57.615Z,2.00
2018-07-31T16:41:25.768Z,1.60
2018-07-31T16:43:53.859Z,1.70
2018-07-31T16:46:21.956Z,1.57
2018-07-31T16:48:50.072Z,1.60
2018-07-31T16:51:18.247Z,1.93
2018-07-31T16:53:46.348Z,1.60
2018-07-31T16:56:14.454Z,2.33
2018-07-31T16:58:42.579Z,1.70
2018-07-31T17:01:10.730Z,1.50
2018-07-31T17:03:38.829Z,1.90
2018-07-31T17:06:07.155Z,1.53
2018-07-31T17:08:35.323Z,1.97
2018-07-31T17:11:03.430Z,1.97
2018-07-31T17:13:31.592Z,2.00
2018-07-31T17:15:59.711Z,2.30
2018-07-31T17:18:27.828Z,2.07
2018-07-31T17:20:55.962Z,2.27
2018-07-31T17:23:23.862Z,1.53
2018-07-31T17:25:51.950Z,2.00
2018-07-31T17:28:20.080Z,1.77
2018-07-31T17:30:48.207Z,1.80
2018-07-31T17:33:16.305Z,2.30
2018-07-31T17:35:44.419Z,2.07
2018-07-31T17:38:12.524Z,2.30
2018-07-31T17:40:40.685Z,1.90
2018-07-31T17:43:08.839Z,1.80
2018-07-31T17:45:36.955Z,1.90
2018-07-31T17:48:05.135Z,1.83
2018-07-31T17:50:33.279Z,1.90
2018-07-31T17:53:01.420Z,2.83
2018-07-31T17:55:29.532Z,1.77
2018-07-31T17:57:57.663Z,2.07
2018-07-31T18:00:25.817Z,2.13
2018-07-31T18:02:53.990Z,2.83
2018-07-31T18:05:22.181Z,1.97
2018-07-31T18:07:50.317Z,2.53
2018-07-31T18:10:18.421Z,2.10
2018-07-31T18:12:46.685Z,2.27
2018-07-31T18:15:14.786Z,4.20
2018-07-31T18:17:42.905Z,4.03
2018-07-31T18:20:11.229Z,3.10
2018-07-31T18:22:39.460Z,6.10
2018-07-31T18:25:07.668Z,3.17
2018-07-31T18:27:35.800Z,2.87
2018-07-31T18:30:04.512Z,1.83
2018-07-31T18:32:32.646Z,1.90
2018-07-31T18:35:00.863Z,2.00
2018-07-31T18:37:28.920Z,2.03
2018-07-31T18:39:58.061Z,2.50
2018-07-31T18:42:26.196Z,2.20
2018-07-31T18:44:54.299Z,2.03
2018-07-31T18:47:22.444Z,1.83
2018-07-31T18:49:50.539Z,2.00
2018-07-31T18:52:18.659Z,2.00
2018-07-31T18:54:46.792Z,2.47
2018-07-31T18:57:14.916Z,2.10
2018-07-31T18:59:43.393Z,2.17
2018-07-31T19:02:11.660Z,1.90
2018-07-31T19:04:39.784Z,1.73
2018-07-31T19:07:07.919Z,2.13
2018-07-31T19:09:36.074Z,1.80
2018-07-31T19:12:04.204Z,2.47
2018-07-31T19:14:32.450Z,2.73
2018-07-31T19:17:00.576Z,2.30
2018-07-31T19:19:28.945Z,2.00
2018-07-31T19:21:57.092Z,1.93
2018-07-31T19:24:25.187Z,2.53
2018-07-31T19:26:53.356Z,1.87
2018-07-31T19:29:21.515Z,1.97
2018-07-31T19:31:49.671Z,1.93
2018-07-31T19:34:17.829Z,1.73
2018-07-31T19:36:45.954Z,1.53
2018-07-31T19:39:14.097Z,1.60
2018-07-31T19:41:42.394Z,1.87
2018-07-31T19:44:10.508Z,1.67
2018-07-31T19:46:38.871Z,1.63
2018-07-31T19:49:06.927Z,1.50
2018-07-31T19:51:35.068Z,2.00
2018-07-31T19:54:03.216Z,1.37
2018-07-31T19:56:31.378Z,2.10
2018-07-31T19:58:59.520Z,1.67
2018-07-31T20:01:27.668Z,1.57
2018-07-31T20:03:55.861Z,1.63
2018-07-31T20:06:24.996Z,1.80
2018-07-31T20:08:53.074Z,1.80
2018-07-31T20:11:21.170Z,1.57
2018-07-31T20:13:49.216Z,1.60
2018-07-31T20:16:17.284Z,1.20
2018-07-31T20:18:45.378Z,1.37
2018-07-31T20:21:13.464Z,1.23
2018-07-31T20:23:41.503Z,0.80
2018-07-31T20:26:09.611Z,1.03
2018-07-31T20:28:37.717Z,1.30
2018-07-31T20:31:06.330Z,1.50
2018-07-31T20:33:34.418Z,1.00
2018-07-31T20:36:02.469Z,0.90
2018-07-31T20:38:30.525Z,1.10
2018-07-31T20:40:58.612Z,0.70
2018-07-31T20:43:26.507Z,0.70
2018-07-31T20:45:54.520Z,1.13
2018-07-31T20:48:22.556Z,0.67
2018-07-31T20:50:50.734Z,1.40
2018-07-31T20:53:18.805Z,1.30
2018-07-31T20:55:46.881Z,0.87
2018-07-31T20:58:14.925Z,1.13
2018-07-31T21:00:42.856Z,0.80
2018-07-31T21:03:10.900Z,1.03
2018-07-31T21:05:39.011Z,1.07
2018-07-31T21:08:07.130Z,1.00
2018-07-31T21:10:35.223Z,0.60
2018-07-31T21:13:03.323Z,0.90
2018-07-31T21:15:31.469Z,0.90
2018-07-31T21:17:59.616Z,0.87
2018-07-31T21:20:27.694Z,0.77
2018-07-31T21:22:55.802Z,0.80
2018-07-31T21:25:23.716Z,0.97
2018-07-31T21:27:51.846Z,0.63
2018-07-31T21:30:19.966Z,0.80
2018-07-31T21:32:49.138Z,1.03
2018-07-31T21:35:17.241Z,0.57
2018-07-31T21:37:46.405Z,0.93
2018-07-31T21:40:14.509Z,1.10
2018-07-31T21:42:42.664Z,0.83
2018-07-31T21:45:10.767Z,1.00
2018-07-31T21:47:38.892Z,1.07
2018-07-31T21:50:06.999Z,0.90
2018-07-31T21:52:35.092Z,0.80
2018-07-31T21:55:03.399Z,0.70
2018-07-31T21:57:31.627Z,0.90
2018-07-31T21:59:59.788Z,0.87
2018-07-31T22:02:28.956Z,1.90
2018-07-31T22:04:57.167Z,0.63
2018-07-31T22:07:25.534Z,1.83
2018-07-31T22:09:53.671Z,1.33
2018-07-31T22:12:21.783Z,1.03
2018-07-31T22:14:49.911Z,1.20
2018-07-31T22:17:17.863Z,1.13
2018-07-31T22:19:46.024Z,0.70
2018-07-31T22:22:14.175Z,1.30
2018-07-31T22:24:42.505Z,0.80
2018-07-31T22:27:10.571Z,1.00
2018-07-31T22:29:38.747Z,1.40
2018-07-31T22:32:06.873Z,1.17
2018-07-31T22:34:35.037Z,0.93
2018-07-31T22:37:03.132Z,0.90
2018-07-31T22:39:32.264Z,0.90
2018-07-31T22:42:00.472Z,0.67
2018-07-31T22:44:29.696Z,0.90
2018-07-31T22:46:57.866Z,0.67
2018-07-31T22:49:25.943Z,0.70
2018-07-31T22:51:57.448Z,1.27
2018-07-31T22:54:25.602Z,0.60
2018-07-31T22:56:55.027Z,0.87
2018-07-31T22:59:23.170Z,0.97
2018-07-31T23:01:51.097Z,0.73
2018-07-31T23:04:19.212Z,1.07
2018-07-31T23:06:47.312Z,1.43
2018-07-31T23:09:15.490Z,0.97
2018-07-31T23:11:43.571Z,0.63
2018-07-31T23:14:11.816Z,0.70
2018-07-31T23:16:39.899Z,0.80
2018-07-31T23:19:08.003Z,0.90
2018-07-31T23:21:36.365Z,0.80
2018-07-31T23:24:04.499Z,0.97
2018-07-31T23:26:32.673Z,1.33
2018-07-31T23:29:00.771Z,0.90
2018-07-31T23:31:28.916Z,0.70
2018-07-31T23:33:57.047Z,0.80
2018-07-31T23:36:25.160Z,0.97
2018-07-31T23:38:53.276Z,1.07
2018-07-31T23:41:21.410Z,0.90
2018-07-31T23:43:49.496Z,0.87
2018-07-31T23:46:17.612Z,0.93
2018-07-31T23:48:45.767Z,0.90
2018-07-31T23:51:13.908Z,0.90
2018-07-31T23:53:42.031Z,0.80
2018-07-31T23:56:10.141Z,0.90
2018-07-31T23:58:38.288Z,1.00
